Time;durP1;ratioP1;P1;durP2;ratioP2;P2;SDS_P1;SDS_P2;PMS_P1;PMS_P2;Temp;Humidity;BMP_temperature;BMP_pressure;BME280_temperature;BME280_humidity;BME280_pressure;Samples;Min_cycle;Max_cycle;Signal;HPM_P1;HPM_P2
2022/10/14 00:02:19;;;;;;;144.32;25.20;;;;;;;17.57;100.00;101377.47;5008700;28;20284;-49
2022/10/14 00:04:45;;;;;;;86.57;22.00;;;;;;;17.69;100.00;101385.63;5011479;28;20042;-51
2022/10/14 00:07:10;;;;;;;180.35;23.75;;;;;;;17.69;100.00;101384.78;5009561;28;20043;-52
2022/10/14 00:09:36;;;;;;;79.07;23.40;;;;;;;17.67;100.00;101378.78;5002850;28;20054;-51
2022/10/14 00:12:02;;;;;;;83.50;21.83;;;;;;;17.69;100.00;101391.03;5009023;28;20034;-54
2022/10/14 00:14:27;;;;;;;111.55;23.10;;;;;;;17.46;100.00;101386.34;5009280;28;20311;-53
2022/10/14 00:16:54;;;;;;;114.53;21.98;;;;;;;17.34;100.00;101381.72;5001912;28;20039;-51
2022/10/14 00:19:20;;;;;;;69.93;20.97;;;;;;;17.33;100.00;101380.09;5006460;28;20034;-51
2022/10/14 00:21:48;;;;;;;50.10;20.50;;;;;;;17.45;100.00;101380.13;5005322;28;20264;-54
2022/10/14 00:24:15;;;;;;;52.43;20.87;;;;;;;17.35;100.00;101382.53;5011325;28;20351;-49
2022/10/14 00:26:42;;;;;;;50.17;20.93;;;;;;;16.87;100.00;101384.13;5007855;28;20042;-54
2022/10/14 00:29:10;;;;;;;;;;;;;;;16.68;100.00;101380.56;5003792;28;20375;-52
2022/10/14 00:31:36;;;;;;;56.77;20.50;;;;;;;16.88;100.00;101380.38;5037794;28;19913;-51
2022/10/14 00:34:02;;;;;;;52.43;20.47;;;;;;;16.85;100.00;101383.53;5002255;28;20289;-50
2022/10/14 00:36:28;;;;;;;50.55;20.85;;;;;;;17.16;100.00;101379.84;5001740;28;20269;-49
2022/10/14 00:38:54;;;;;;;50.42;19.48;;;;;;;17.46;100.00;101375.53;5012819;28;20043;-47
2022/10/14 00:41:29;;;;;;;50.22;19.60;;;;;;;17.66;100.00;101369.88;5005380;28;20038;-49
2022/10/14 00:43:54;;;;;;;54.50;20.97;;;;;;;17.76;100.00;101369.28;5006206;28;20034;-51
2022/10/14 00:46:21;;;;;;;52.10;20.50;;;;;;;17.78;100.00;101373.41;5011402;28;20352;-53
2022/10/14 00:48:50;;;;;;;57.67;23.00;;;;;;;17.82;100.00;101360.28;5010998;28;20294;-52
2022/10/14 00:51:16;;;;;;;55.25;21.17;;;;;;;17.95;100.00;101356.53;5010910;28;20287;-53
2022/10/14 00:53:43;;;;;;;57.30;23.30;;;;;;;18.00;100.00;101350.44;5006522;28;20057;-49
2022/10/14 00:56:10;;;;;;;51.58;22.05;;;;;;;18.04;100.00;101349.75;5000617;28;20276;-49
2022/10/14 00:58:37;;;;;;;65.27;23.57;;;;;;;18.13;100.00;101338.59;5000310;28;20034;-52
2022/10/14 01:01:03;;;;;;;59.30;22.17;;;;;;;18.13;100.00;101338.59;5013685;28;20272;-54
2022/10/14 01:03:32;;;;;;;56.45;22.25;;;;;;;18.03;100.00;101337.28;5001422;28;20341;-53
2022/10/14 01:06:08;;;;;;;60.57;24.23;;;;;;;18.09;100.00;101345.50;5016255;28;20084;-50
2022/10/14 01:08:48;;;;;;;62.03;24.10;;;;;;;18.12;100.00;101329.63;5002904;28;20272;-50
2022/10/14 01:11:49;;;;;;;65.67;25.40;;;;;;;18.15;100.00;101329.16;5018522;28;20039;-53
2022/10/14 01:14:30;;;;;;;57.03;23.03;;;;;;;17.83;100.00;101318.63;4981704;28;20320;-52
2022/10/14 01:17:25;;;;;;;62.83;24.03;;;;;;;18.09;100.00;101307.63;5019209;28;20352;-55
2022/10/14 01:20:00;;;;;;;62.43;24.83;;;;;;;17.82;100.00;101298.03;5002391;28;20348;-51
2022/10/14 01:22:43;;;;;;;63.90;24.87;;;;;;;17.87;100.00;101286.50;4999982;28;20268;-53
2022/10/14 01:25:15;;;;;;;64.27;24.30;;;;;;;18.04;100.00;101287.50;5004209;28;20288;-52
2022/10/14 01:27:56;;;;;;;59.93;24.50;;;;;;;17.88;100.00;101280.88;5006352;28;20310;-53
2022/10/14 01:30:24;;;;;;;57.37;25.00;;;;;;;18.09;100.00;101284.09;5011139;28;20270;-52
2022/10/14 01:33:15;;;;;;;68.07;24.87;;;;;;;18.02;100.00;101283.41;5014184;28;20292;-49
2022/10/14 01:36:03;;;;;;;78.87;26.97;;;;;;;17.80;100.00;101281.22;5006838;28;20276;-53
2022/10/14 01:38:36;;;;;;;62.00;25.87;;;;;;;17.99;100.00;101289.22;5003110;28;20275;-53
2022/10/14 01:41:10;;;;;;;79.93;27.57;;;;;;;17.87;100.00;101281.94;4994364;28;20284;-53
2022/10/14 01:43:37;;;;;;;72.60;25.77;;;;;;;17.95;100.00;101291.59;5001345;28;20276;-51
2022/10/14 01:46:05;;;;;;;63.17;24.33;;;;;;;18.05;100.00;101282.94;5007277;28;20276;-52
2022/10/14 01:48:35;;;;;;;64.00;27.83;;;;;;;18.08;100.00;101284.31;5008822;28;20272;-54
2022/10/14 01:51:06;;;;;;;70.93;27.60;;;;;;;18.09;100.00;101294.91;5031172;28;20280;-50
2022/10/14 01:53:37;;;;;;;63.47;26.90;;;;;;;18.15;100.00;101285.84;5004705;28;20284;-53
2022/10/14 01:56:04;;;;;;;69.67;26.03;;;;;;;18.30;100.00;101289.97;5000552;28;20276;-51
2022/10/14 01:58:32;;;;;;;90.20;29.13;;;;;;;18.27;100.00;101290.47;4989777;28;20297;-53
2022/10/14 02:01:02;;;;;;;68.93;26.53;;;;;;;18.26;100.00;101300.44;5021747;28;20272;-55
2022/10/14 02:03:43;;;;;;;68.97;27.43;;;;;;;18.29;100.00;101289.16;5000004;28;20253;-48
2022/10/14 02:06:25;;;;;;;69.70;26.83;;;;;;;18.38;100.00;101291.50;5006979;28;20269;-54
2022/10/14 02:09:23;;;;;;;80.53;30.73;;;;;;;18.45;100.00;101287.63;5006043;28;20268;-54
2022/10/14 02:12:17;;;;;;;68.70;27.10;;;;;;;18.43;100.00;101276.19;5015032;28;20260;-48
2022/10/14 02:15:10;;;;;;;67.70;27.70;;;;;;;18.48;100.00;101275.47;5008270;28;20269;-53
2022/10/14 02:17:47;;;;;;;66.10;26.43;;;;;;;18.54;100.00;101271.81;5000819;28;20281;-48
2022/10/14 02:20:22;;;;;;;71.90;29.60;;;;;;;18.60;100.00;101270.03;5006555;28;20276;-55
2022/10/14 02:22:59;;;;;;;80.67;31.90;;;;;;;18.65;100.00;101272.84;5001406;28;21370;-52
2022/10/14 02:25:33;;;;;;;73.00;28.13;;;;;;;18.68;100.00;101268.84;4994797;28;20264;-54
2022/10/14 02:28:01;;;;;;;75.00;29.83;;;;;;;18.73;100.00;101272.50;5004738;28;20032;-51
2022/10/14 02:30:31;;;;;;;79.87;32.00;;;;;;;18.72;100.00;101273.56;5011566;28;20304;-49
2022/10/14 02:32:59;;;;;;;80.00;29.73;;;;;;;18.75;100.00;101272.22;4997533;28;20315;-51
2022/10/14 02:35:28;;;;;;;73.87;30.87;;;;;;;18.81;100.00;101273.16;5011889;28;20284;-53
2022/10/14 02:37:55;;;;;;;82.03;33.57;;;;;;;18.75;100.00;101273.06;4998030;28;20288;-52
2022/10/14 02:40:44;;;;;;;71.20;30.67;;;;;;;18.83;100.00;101274.59;5018267;28;20261;-52
2022/10/14 02:43:10;;;;;;;72.07;31.43;;;;;;;18.94;100.00;101272.06;5008751;28;20287;-52
2022/10/14 02:45:37;;;;;;;76.20;31.10;;;;;;;18.99;100.00;101262.19;5001197;28;20272;-49
2022/10/14 02:48:04;;;;;;;77.50;31.30;;;;;;;19.06;100.00;101257.44;5000749;28;20121;-53
2022/10/14 02:50:29;;;;;;;;;;;;;;;19.00;100.00;101254.84;5007506;28;20340;-53
2022/10/14 02:52:55;;;;;;;77.47;30.67;;;;;;;19.01;100.00;101254.63;5014914;28;19925;-49
2022/10/14 02:55:21;;;;;;;62.17;29.00;;;;;;;19.09;100.00;101244.47;5008871;28;20039;-49
2022/10/14 02:57:46;;;;;;;78.07;29.75;;;;;;;19.08;100.00;101245.53;5001854;28;20088;-51
2022/10/14 03:00:12;;;;;;;76.15;30.42;;;;;;;19.13;100.00;101253.75;5030054;28;20035;-51
2022/10/14 03:02:40;;;;;;;78.60;32.17;;;;;;;19.16;100.00;101251.38;5008311;28;20030;-50
2022/10/14 03:05:07;;;;;;;71.90;33.27;;;;;;;19.17;100.00;101238.66;4999982;28;20328;-50
2022/10/14 03:07:33;;;;;;;78.60;33.15;;;;;;;19.15;100.00;101232.66;5009836;28;20261;-50
2022/10/14 03:10:03;;;;;;;78.13;32.57;;;;;;;19.14;100.00;101233.69;5012789;28;20034;-54
2022/10/14 03:12:32;;;;;;;75.93;32.27;;;;;;;19.15;100.00;101238.09;5022796;28;20883;-52
2022/10/14 03:14:58;;;;;;;80.43;34.42;;;;;;;18.84;100.00;101234.75;5001279;28;20261;-52
2022/10/14 03:17:25;;;;;;;84.10;36.53;;;;;;;18.82;100.00;101228.75;5005014;28;20043;-51
2022/10/14 03:19:52;;;;;;;83.97;34.93;;;;;;;18.60;100.00;101226.69;5013782;28;20034;-51
2022/10/14 03:22:18;;;;;;;81.63;35.55;;;;;;;18.81;100.00;101227.09;5017510;28;20307;-49
2022/10/14 03:24:44;;;;;;;84.15;36.83;;;;;;;18.98;100.00;101233.44;5000634;28;20043;-55
2022/10/14 03:27:21;;;;;;;;;;;;;;;19.12;100.00;101228.53;5017369;28;20054;-52
2022/10/14 03:29:51;;;;;;;81.67;33.90;;;;;;;19.00;100.00;101225.06;4990684;28;19921;-53
2022/10/14 03:32:21;;;;;;;76.10;35.80;;;;;;;19.16;100.00;101216.13;5046436;28;20281;-56
2022/10/14 03:35:05;;;;;;;77.63;34.50;;;;;;;19.25;100.00;101213.84;5015089;28;20265;-53
2022/10/14 03:37:31;;;;;;;90.47;35.97;;;;;;;19.32;100.00;101211.00;5006121;28;20264;-51
2022/10/14 03:39:57;;;;;;;86.28;36.35;;;;;;;19.44;100.00;101209.00;5009383;28;20035;-53
2022/10/14 03:42:24;;;;;;;98.53;35.67;;;;;;;19.30;100.00;101211.22;5020076;28;20039;-55
2022/10/14 03:44:49;;;;;;;81.13;35.78;;;;;;;19.31;100.00;101207.44;5018027;28;20098;-52
2022/10/14 03:47:20;;;;;;;80.47;34.20;;;;;;;19.27;100.00;101200.88;5004832;28;20033;-50
2022/10/14 03:49:46;;;;;;;83.80;36.47;;;;;;;19.27;100.00;101192.75;5050288;28;20324;-54
2022/10/14 03:52:19;;;;;;;86.33;36.03;;;;;;;19.23;100.00;101196.19;5063341;28;20271;-56
2022/10/14 03:54:56;;;;;;;85.55;36.72;;;;;;;18.85;100.00;101198.47;5063966;28;20266;-52
2022/10/14 03:57:22;;;;;;;78.77;34.37;;;;;;;18.75;100.00;101199.09;5065577;28;20030;-54
2022/10/14 03:59:52;;;;;;;85.50;36.60;;;;;;;18.99;100.00;101197.13;5062944;28;20288;-54
2022/10/14 04:02:20;;;;;;;95.47;36.77;;;;;;;19.34;100.00;101192.59;5067808;28;20302;-53
2022/10/14 04:04:49;;;;;;;86.83;37.43;;;;;;;18.92;100.00;101185.59;5073715;28;20277;-53
2022/10/14 04:07:17;;;;;;;93.23;35.83;;;;;;;18.68;100.00;101179.47;5066371;28;20277;-51
2022/10/14 04:09:50;;;;;;;83.30;33.87;;;;;;;19.08;100.00;101185.88;5066263;28;20274;-54
2022/10/14 04:12:16;;;;;;;90.80;36.97;;;;;;;19.25;100.00;101178.59;5068913;28;20269;-51
2022/10/14 04:15:08;;;;;;;87.37;35.17;;;;;;;18.76;100.00;101176.34;5068164;28;20053;-55
2022/10/14 04:17:50;;;;;;;101.83;38.97;;;;;;;19.07;100.00;101171.53;5069704;28;20270;-53
2022/10/14 04:20:16;;;;;;;76.53;34.90;;;;;;;19.22;100.00;101165.53;5068662;28;20338;-53
2022/10/14 04:22:42;;;;;;;81.17;34.13;;;;;;;19.11;100.00;101161.84;5070273;28;20036;-54
2022/10/14 04:25:09;;;;;;;91.47;35.57;;;;;;;19.30;100.00;101165.13;5067972;28;20281;-55
2022/10/14 04:27:35;;;;;;;97.75;36.20;;;;;;;19.12;100.00;101173.50;5064771;28;20293;-53
2022/10/14 04:30:06;;;;;;;87.00;34.80;;;;;;;19.23;100.00;101164.47;5068873;28;20036;-50
2022/10/14 04:32:43;;;;;;;78.07;35.00;;;;;;;19.10;100.00;101160.19;5065714;28;20281;-54
2022/10/14 04:35:09;;;;;;;;;;;;;;;19.11;100.00;101153.72;5066968;28;20032;-51
2022/10/14 04:37:39;;;;;;;83.53;32.63;;;;;;;18.95;100.00;101160.72;5068253;28;19912;-55
2022/10/14 04:40:10;;;;;;;90.17;36.03;;;;;;;18.99;100.00;101161.91;5067100;28;20270;-53
2022/10/14 04:42:42;;;;;;;77.73;32.80;;;;;;;19.38;100.00;101161.19;5064594;28;20326;-52
2022/10/14 04:45:17;;;;;;;88.50;33.47;;;;;;;19.21;100.00;101155.78;5066043;28;20309;-55
2022/10/14 04:47:50;;;;;;;71.60;32.60;;;;;;;19.29;100.00;101149.13;5069473;28;20274;-56
2022/10/14 04:50:19;;;;;;;70.17;30.97;;;;;;;19.37;100.00;101147.88;5068637;28;20396;-53
2022/10/14 04:53:04;;;;;;;73.17;29.13;;;;;;;19.47;100.00;101142.63;5067669;28;20278;-52
2022/10/14 04:55:30;;;;;;;64.88;31.08;;;;;;;19.23;100.00;101142.78;5066033;28;20342;-51
2022/10/14 04:57:55;;;;;;;69.68;32.17;;;;;;;19.41;100.00;101135.47;5067189;28;20033;-51
2022/10/14 05:00:21;;;;;;;66.03;28.43;;;;;;;19.32;100.00;101132.34;5066797;28;20059;-49
2022/10/14 05:02:58;;;;;;;63.43;27.50;;;;;;;19.27;100.00;101132.28;5072572;28;20246;-49
2022/10/14 05:05:30;;;;;;;63.97;28.33;;;;;;;19.29;100.00;101130.94;5065819;28;20325;-49
2022/10/14 05:07:58;;;;;;;68.53;30.17;;;;;;;19.38;100.00;101131.34;5063912;28;20272;-51
2022/10/14 05:10:36;;;;;;;65.23;29.27;;;;;;;19.25;100.00;101121.66;5064888;28;20271;-50
2022/10/14 05:13:05;;;;;;;66.40;29.50;;;;;;;19.04;100.00;101121.34;5067466;28;20290;-52
2022/10/14 05:15:35;;;;;;;67.03;27.97;;;;;;;18.90;100.00;101119.97;5070071;28;20287;-52
2022/10/14 05:18:12;;;;;;;61.77;28.77;;;;;;;19.01;100.00;101110.16;5070506;28;20276;-52
2022/10/14 05:20:49;;;;;;;60.87;27.70;;;;;;;18.66;100.00;101111.97;5064757;28;20281;-54
2022/10/14 05:23:17;;;;;;;65.27;28.73;;;;;;;18.96;100.00;101112.75;5066949;28;20281;-50
2022/10/14 05:25:43;;;;;;;59.90;28.10;;;;;;;18.96;100.00;101104.63;5068190;28;20270;-50
2022/10/14 05:28:09;;;;;;;58.85;27.02;;;;;;;18.94;100.00;101107.59;5069497;28;20294;-51
2022/10/14 05:30:41;;;;;;;62.07;27.53;;;;;;;19.09;100.00;101101.63;5066179;28;20060;-51
2022/10/14 05:33:09;;;;;;;60.33;26.07;;;;;;;18.95;100.00;101097.56;5064656;28;20282;-50
2022/10/14 05:35:36;;;;;;;59.30;26.00;;;;;;;18.94;100.00;101085.91;5066633;28;20282;-53
2022/10/14 05:38:03;;;;;;;50.40;23.57;;;;;;;18.94;100.00;101094.06;5063215;28;20716;-53
2022/10/14 05:40:34;;;;;;;66.00;26.43;;;;;;;19.00;100.00;101084.97;5071229;28;20124;-50
2022/10/14 05:43:00;;;;;;;56.45;25.55;;;;;;;19.25;100.00;101081.00;5067028;28;20254;-49
2022/10/14 05:45:27;;;;;;;55.67;24.57;;;;;;;19.13;100.00;101082.97;5067650;28;20028;-52
2022/10/14 05:47:53;;;;;;;55.50;24.27;;;;;;;19.37;100.00;101085.50;5065051;28;20277;-53
2022/10/14 05:50:20;;;;;;;;;;;;;;;19.76;100.00;101088.22;5002426;28;20047;-51
2022/10/14 05:52:47;;;;;;;57.38;25.58;;;;;;;19.24;100.00;101081.25;4975419;28;19933;-53
2022/10/14 05:55:18;;;;;;;62.80;24.90;;;;;;;19.33;100.00;101090.63;4990342;28;20031;-51
2022/10/14 05:57:45;;;;;;;62.30;24.77;;;;;;;19.48;100.00;101085.41;4985878;28;20277;-52
2022/10/14 06:00:16;;;;;;;61.03;26.63;;;;;;;19.18;100.00;101075.75;4987498;28;20272;-54
2022/10/14 06:02:49;;;;;;;56.63;26.33;;;;;;;19.57;100.00;101068.72;4989056;28;20262;-49
2022/10/14 06:05:17;;;;;;;66.37;27.77;;;;;;;19.02;100.00;101060.31;4978266;28;20332;-51
2022/10/14 06:07:42;;;;;;;69.20;27.57;;;;;;;19.16;100.00;101063.53;4983176;28;20272;-52
2022/10/14 06:10:09;;;;;;;68.28;27.25;;;;;;;19.50;100.00;101052.59;4988965;28;20030;-53
2022/10/14 06:12:36;;;;;;;60.90;25.33;;;;;;;19.58;100.00;101052.16;4981389;28;20039;-54
2022/10/14 06:15:02;;;;;;;55.20;23.42;;;;;;;19.31;100.00;101058.31;4989289;28;20324;-52
2022/10/14 06:17:28;;;;;;;52.88;24.10;;;;;;;19.03;100.00;101054.66;4982828;28;20039;-51
2022/10/14 06:19:54;;;;;;;56.97;23.90;;;;;;;19.26;100.00;101052.81;4981927;28;20074;-52
2022/10/14 06:22:20;;;;;;;56.28;25.05;;;;;;;19.06;100.00;101056.06;4983534;28;20047;-48
2022/10/14 06:24:45;;;;;;;47.60;23.00;;;;;;;19.34;100.00;101054.28;4984329;28;20046;-52
2022/10/14 06:27:10;;;;;;;48.10;22.30;;;;;;;19.11;100.00;101055.28;4987795;28;20035;-52
2022/10/14 06:29:39;;;;;;;49.97;22.77;;;;;;;19.20;100.00;101056.53;4989146;28;20037;-54
2022/10/14 06:32:06;;;;;;;51.63;23.23;;;;;;;19.33;100.00;101053.47;4976925;28;20058;-52
2022/10/14 06:34:31;;;;;;;51.83;23.43;;;;;;;19.18;100.00;101047.84;4976408;28;20282;-54
2022/10/14 06:36:57;;;;;;;55.17;23.47;;;;;;;19.37;100.00;101047.53;4991213;28;20301;-49
2022/10/14 06:39:23;;;;;;;;;;;;;;;19.17;100.00;101041.56;4982240;28;20279;-53
2022/10/14 06:41:49;;;;;;;41.93;19.97;;;;;;;19.20;100.00;101040.28;4997338;28;19914;-52
2022/10/14 06:44:19;;;;;;;53.53;21.73;;;;;;;19.57;100.00;101042.38;4990429;28;20047;-52
2022/10/14 06:46:44;;;;;;;49.83;21.23;;;;;;;19.07;100.00;101041.44;4982351;28;20304;-53
2022/10/14 06:49:10;;;;;;;48.67;21.50;;;;;;;19.10;100.00;101035.50;4992803;28;20350;-52
2022/10/14 06:51:37;;;;;;;40.72;19.95;;;;;;;19.40;100.00;101030.78;5000119;28;20042;-51
2022/10/14 06:54:03;;;;;;;44.43;21.53;;;;;;;19.52;100.00;101034.19;4998094;28;20042;-50
2022/10/14 06:56:29;;;;;;;44.13;21.20;;;;;;;19.29;100.00;101035.25;5006887;28;20272;-52
2022/10/14 06:58:55;;;;;;;42.33;20.83;;;;;;;19.45;100.00;101037.06;5002968;28;20283;-52
2022/10/14 07:01:21;;;;;;;47.55;21.45;;;;;;;19.52;100.00;101033.38;5007478;28;20062;-54
2022/10/14 07:03:47;;;;;;;41.35;21.15;;;;;;;19.25;100.00;101029.50;5001296;28;20034;-51
2022/10/14 07:06:13;;;;;;;45.47;21.23;;;;;;;19.45;100.00;101033.56;4998865;28;20043;-53
2022/10/14 07:08:39;;;;;;;47.85;21.83;;;;;;;19.16;100.00;101034.50;5007333;28;20035;-50
2022/10/14 07:11:05;;;;;;;50.95;22.80;;;;;;;19.12;100.00;101036.09;5007973;28;20066;-51
2022/10/14 07:13:33;;;;;;;39.10;19.40;;;;;;;19.87;100.00;101043.03;4997374;28;20035;-49
2022/10/14 07:15:59;;;;;;;39.10;20.97;;;;;;;20.25;100.00;101044.03;5008271;28;20039;-52
2022/10/14 07:18:25;;;;;;;46.33;22.85;;;;;;;20.12;100.00;101045.28;4996896;28;20297;-51
2022/10/14 07:20:51;;;;;;;45.53;22.10;;;;;;;20.12;100.00;101039.00;5000236;28;20064;-50
2022/10/14 07:23:17;;;;;;;41.53;21.40;;;;;;;20.11;100.00;101035.47;5000075;28;20058;-50
2022/10/14 07:25:43;;;;;;;44.15;22.02;;;;;;;19.97;100.00;101034.22;4998995;28;20035;-52
2022/10/14 07:28:08;;;;;;;43.47;22.10;;;;;;;19.84;100.00;101028.09;5006983;28;20847;-49
2022/10/14 07:30:34;;;;;;;43.30;20.80;;;;;;;20.20;100.00;101031.22;4999447;28;20047;-52
2022/10/14 07:32:59;;;;;;;47.77;22.33;;;;;;;20.22;100.00;101032.88;5001884;28;20344;-51
2022/10/14 07:35:28;;;;;;;43.95;21.83;;;;;;;20.04;100.00;101037.56;5013205;28;20040;-51
2022/10/14 07:37:54;;;;;;;46.13;21.57;;;;;;;19.90;100.00;101034.38;5009226;28;20035;-51
2022/10/14 07:40:20;;;;;;;44.83;22.05;;;;;;;20.17;100.00;101039.06;5006299;28;20265;-50
2022/10/14 07:42:46;;;;;;;48.15;21.35;;;;;;;20.23;100.00;101037.22;5009368;28;20068;-48
2022/10/14 07:45:15;;;;;;;38.10;20.23;;;;;;;20.37;100.00;101029.47;5010120;28;20030;-52
2022/10/14 07:47:46;;;;;;;40.57;21.60;;;;;;;20.08;100.00;101029.72;5000020;28;20090;-48
2022/10/14 07:50:12;;;;;;;36.93;20.03;;;;;;;20.15;100.00;101031.19;5013410;28;20290;-53
2022/10/14 07:52:38;;;;;;;43.92;20.60;;;;;;;20.39;100.00;101025.44;5007317;28;20387;-51
2022/10/14 07:55:05;;;;;;;38.92;18.95;;;;;;;20.09;100.00;101028.66;5003923;28;20038;-49
2022/10/14 07:57:31;;;;;;;42.30;19.80;;;;;;;20.43;100.00;101036.63;5013108;28;20030;-53
2022/10/14 07:59:57;;;;;;;42.58;20.67;;;;;;;20.02;100.00;101020.69;5004960;28;20331;-54
2022/10/14 08:02:23;;;;;;;39.55;20.98;;;;;;;19.70;100.00;101026.81;5021124;28;20086;-55
2022/10/14 08:04:52;;;;;;;37.43;20.07;;;;;;;19.95;100.00;101033.66;5006188;28;20030;-54
2022/10/14 08:07:17;;;;;;;43.73;18.83;;;;;;;20.17;100.00;101025.47;5008676;28;20042;-49
2022/10/14 08:09:43;;;;;;;36.60;20.47;;;;;;;20.02;100.00;101034.28;5010456;28;20272;-52
2022/10/14 08:12:08;;;;;;;32.22;17.90;;;;;;;20.68;100.00;101025.16;5007069;28;20031;-52
2022/10/14 08:14:34;;;;;;;36.17;18.67;;;;;;;20.53;100.00;101022.28;5013849;28;20137;-50
2022/10/14 08:16:59;;;;;;;37.63;18.83;;;;;;;19.75;100.00;101029.59;5010872;28;20062;-51
2022/10/14 08:19:25;;;;;;;33.35;17.98;;;;;;;20.28;100.00;101026.41;5005559;28;20507;-53
2022/10/14 08:21:52;;;;;;;37.80;19.10;;;;;;;20.16;100.00;101021.13;5010249;28;20073;-55
2022/10/14 08:24:17;;;;;;;36.97;17.97;;;;;;;19.93;100.00;101020.34;5011089;28;20037;-51
2022/10/14 08:26:55;;;;;;;34.80;19.33;;;;;;;20.08;100.00;101016.16;5001871;28;20275;-52
2022/10/14 08:29:21;;;;;;;35.60;18.07;;;;;;;20.08;100.00;101022.44;5012929;28;20042;-53
2022/10/14 08:31:47;;;;;;;31.70;17.90;;;;;;;20.22;100.00;101005.72;5007208;28;20299;-50
2022/10/14 08:34:13;;;;;;;39.10;19.55;;;;;;;20.18;100.00;101000.78;5005889;28;20291;-48
2022/10/14 08:36:39;;;;;;;36.38;19.90;;;;;;;20.15;100.00;101009.47;5007333;28;20094;-53
2022/10/14 08:39:05;;;;;;;35.22;18.48;;;;;;;20.18;100.00;101005.38;5011918;28;20042;-52
2022/10/14 08:41:38;;;;;;;33.43;18.23;;;;;;;20.60;100.00;101012.03;5003401;28;20102;-49
2022/10/14 08:44:18;;;;;;;28.57;17.27;;;;;;;20.23;100.00;101013.63;5018732;28;20082;-50
2022/10/14 08:47:00;;;;;;;31.07;17.43;;;;;;;20.67;100.00;101007.19;5006000;28;20049;-52
2022/10/14 08:49:45;;;;;;;34.40;18.17;;;;;;;20.46;100.00;101007.03;4998423;28;20289;-50
2022/10/14 08:52:26;;;;;;;33.00;17.47;;;;;;;20.40;100.00;100999.91;5012476;28;20030;-49
2022/10/14 08:54:56;;;;;;;32.57;17.40;;;;;;;20.40;100.00;101013.50;5003377;28;20038;-49
2022/10/14 08:57:28;;;;;;;34.10;16.77;;;;;;;20.51;100.00;101010.84;5014693;28;20059;-51
2022/10/14 08:59:54;;;;;;;32.73;17.60;;;;;;;20.54;100.00;101013.09;4999953;28;20117;-52
2022/10/14 09:02:32;;;;;;;44.13;18.00;;;;;;;20.71;100.00;101012.94;5013627;28;20284;-51
2022/10/14 09:04:59;;;;;;;31.83;17.23;;;;;;;20.63;100.00;101014.25;5001540;28;20039;-51
2022/10/14 09:07:25;;;;;;;;;;;;;;;20.42;100.00;101014.06;5010066;28;20105;-51
2022/10/14 09:09:57;;;;;;;27.87;16.67;;;;;;;20.26;100.00;101007.66;5014632;28;19913;-53
2022/10/14 09:12:27;;;;;;;28.63;17.20;;;;;;;20.98;100.00;101007.44;5006380;28;20126;-53
2022/10/14 09:15:02;;;;;;;28.43;17.07;;;;;;;20.86;100.00;101012.28;4999842;28;20034;-52
2022/10/14 09:17:35;;;;;;;28.93;17.40;;;;;;;20.63;100.00;100997.94;5012078;28;20038;-50
2022/10/14 09:20:12;;;;;;;30.10;17.27;;;;;;;20.68;100.00;100991.72;5005143;28;20037;-52
2022/10/14 09:22:37;;;;;;;32.22;16.80;;;;;;;20.66;100.00;100994.69;5012987;28;20042;-53
2022/10/14 09:25:11;;;;;;;33.78;17.85;;;;;;;20.49;100.00;100998.34;5008989;28;20038;-49
2022/10/14 09:27:36;;;;;;;31.30;18.27;;;;;;;20.40;100.00;101002.63;5001261;28;20098;-51
2022/10/14 09:30:09;;;;;;;36.03;18.92;;;;;;;20.63;100.00;100998.75;5018304;28;20030;-53
2022/10/14 09:32:39;;;;;;;29.50;17.00;;;;;;;20.71;100.00;100992.00;4998997;28;20045;-52
2022/10/14 09:35:32;;;;;;;33.07;17.30;;;;;;;20.95;100.00;100991.66;4999241;28;20029;-52
2022/10/14 09:37:58;;;;;;;33.50;17.57;;;;;;;20.97;100.00;100989.50;5005150;28;20066;-47
2022/10/14 09:40:27;;;;;;;28.65;17.33;;;;;;;21.11;100.00;100986.34;5007371;28;20035;-50
2022/10/14 09:43:08;;;;;;;28.67;17.43;;;;;;;20.96;100.00;100982.44;5000356;28;20071;-52
2022/10/14 09:45:59;;;;;;;33.47;17.97;;;;;;;20.82;100.00;100982.06;5017947;28;20038;-50
2022/10/14 09:48:32;;;;;;;28.87;16.57;;;;;;;21.21;100.00;100986.38;5006652;28;20030;-50
2022/10/14 09:51:01;;;;;;;35.90;18.03;;;;;;;20.84;100.00;100974.47;5014705;28;20064;-51
2022/10/14 09:53:31;;;;;;;40.70;21.57;;;;;;;20.98;100.00;100976.75;5005031;28;20043;-50
2022/10/14 09:56:02;;;;;;;37.77;21.00;;;;;;;20.87;100.00;100976.66;5000551;28;20042;-54
2022/10/14 09:58:45;;;;;;;38.67;19.13;;;;;;;20.92;100.00;100973.16;5002696;28;20046;-56
2022/10/14 10:01:17;;;;;;;30.57;18.30;;;;;;;20.85;100.00;100981.53;4998802;28;20060;-50
2022/10/14 10:03:44;;;;;;;44.03;23.13;;;;;;;20.89;100.00;100976.41;5008040;28;20034;-51
2022/10/14 10:06:13;;;;;;;34.40;21.63;;;;;;;20.95;100.00;100974.56;5010416;28;20042;-54
2022/10/14 10:08:54;;;;;;;29.83;17.50;;;;;;;20.54;100.00;100975.84;4998684;28;20046;-52
2022/10/14 10:11:36;;;;;;;31.07;17.57;;;;;;;20.83;100.00;100972.84;5005760;28;20042;-49
2022/10/14 10:14:26;;;;;;;34.60;18.23;;;;;;;20.91;100.00;100966.09;5001265;28;20045;-51
2022/10/14 10:17:17;;;;;;;31.03;18.63;;;;;;;20.97;100.00;100956.88;5006252;28;20035;-51
2022/10/14 10:19:46;;;;;;;42.80;18.33;;;;;;;21.07;100.00;100961.56;4991049;28;20178;-53
2022/10/14 10:22:25;;;;;;;31.50;17.17;;;;;;;20.91;100.00;100963.38;4998501;28;20090;-51
2022/10/14 10:25:13;;;;;;;32.23;17.13;;;;;;;20.83;100.00;100956.53;5010646;28;20034;-53
2022/10/14 10:27:44;;;;;;;32.57;18.40;;;;;;;21.07;100.00;100956.13;5006723;28;20042;-51
2022/10/14 10:30:22;;;;;;;30.53;17.50;;;;;;;21.42;100.00;100957.41;5005942;28;20101;-51
2022/10/14 10:33:12;;;;;;;26.33;16.00;;;;;;;21.07;100.00;100956.13;4995977;28;20098;-49
2022/10/14 10:36:16;;;;;;;30.60;16.77;;;;;;;20.80;100.00;100950.81;4990888;28;20030;-51
2022/10/14 10:38:58;;;;;;;49.87;18.57;;;;;;;21.05;100.00;100948.25;4993929;28;20042;-50
2022/10/14 10:41:47;;;;;;;30.77;16.53;;;;;;;20.83;100.00;100942.94;4985955;28;20035;-50
2022/10/14 10:44:32;;;;;;;72.87;19.80;;;;;;;21.30;100.00;100945.91;4993396;28;20030;-55
2022/10/14 10:47:17;;;;;;;65.27;17.03;;;;;;;21.68;100.00;100943.91;4992355;28;20064;-51
2022/10/14 10:49:57;;;;;;;60.90;18.83;;;;;;;21.31;100.00;100937.50;4987839;28;20115;-52
2022/10/14 10:52:55;;;;;;;30.40;15.90;;;;;;;21.68;100.00;100945.78;4995093;28;20065;-54
2022/10/14 10:55:35;;;;;;;36.10;17.60;;;;;;;21.01;100.00;100936.28;4998302;28;20066;-54
2022/10/14 10:58:18;;;;;;;32.33;18.00;;;;;;;20.62;100.00;100934.63;4991030;28;20035;-55
2022/10/14 11:01:17;;;;;;;38.97;19.63;;;;;;;21.16;100.00;100934.69;4996947;28;20037;-49
2022/10/14 11:04:13;;;;;;;35.40;17.70;;;;;;;21.12;100.00;100937.16;4997741;28;20042;-53
2022/10/14 11:13:54;;;;;;;30.30;18.17;;;;;;;21.40;100.00;100920.66;5004691;28;20052;-54
2022/10/14 11:16:35;;;;;;;33.83;19.30;;;;;;;21.13;100.00;100913.47;4990791;28;20063;-51
2022/10/14 11:19:01;;;;;;;30.20;16.63;;;;;;;21.10;100.00;100924.88;5015302;28;20065;-52
2022/10/14 11:21:41;;;;;;;28.48;17.05;;;;;;;21.25;100.00;100914.09;5001846;28;20106;-53
2022/10/14 11:24:29;;;;;;;34.07;18.23;;;;;;;21.49;100.00;100913.63;4996162;28;20038;-54
2022/10/14 11:27:08;;;;;;;31.17;17.80;;;;;;;21.53;100.00;100913.88;5002279;28;20042;-55
2022/10/14 11:30:20;;;;;;;28.20;16.97;;;;;;;21.41;100.00;100916.84;4995485;28;20054;-54
2022/10/14 11:33:33;;;;;;;27.70;16.60;;;;;;;20.94;100.00;100916.63;4993595;28;20077;-56